Time;durP1;ratioP1;P1;durP2;ratioP2;P2;SDS_P1;SDS_P2;PMS_P1;PMS_P2;Temp;Humidity;BMP_temperature;BMP_pressure;BME280_temperature;BME280_humidity;BME280_pressure;Samples;Min_cycle;Max_cycle;Signal;HPM_P1;HPM_P2
2022/04/17 00:00:23;;;;;;;2.67;1.73;;;11.80;48.60;;;;;;5128870;27;20055;-61
2022/04/17 00:02:48;;;;;;;1.42;1.08;;;11.70;48.90;;;;;;5149442;27;20026;-64
2022/04/17 00:05:14;;;;;;;0.75;0.75;;;11.70;49.00;;;;;;5137322;27;20505;-60
2022/04/17 00:07:40;;;;;;;3.55;1.42;;;11.60;48.90;;;;;;5143284;27;20023;-61
2022/04/17 00:10:09;;;;;;;1.40;1.20;;;11.60;49.00;;;;;;5131193;27;20051;-61
2022/04/17 00:12:35;;;;;;;1.33;1.23;;;11.50;49.80;;;;;;5135509;27;20430;-63
2022/04/17 00:15:03;;;;;;;2.10;1.20;;;11.50;49.20;;;;;;5144985;27;20764;-62
2022/04/17 00:17:29;;;;;;;1.65;1.20;;;11.40;49.40;;;;;;5134651;27;20019;-61
2022/04/17 00:19:55;;;;;;;1.33;1.23;;;11.40;49.60;;;;;;5145087;27;20091;-60
2022/04/17 00:22:20;;;;;;;2.58;1.45;;;11.40;49.70;;;;;;5151342;27;20432;-61
2022/04/17 00:24:46;;;;;;;2.83;1.42;;;11.30;49.70;;;;;;5133670;27;20043;-60
2022/04/17 00:27:12;;;;;;;1.15;1.10;;;11.30;49.80;;;;;;5137652;27;20378;-61
2022/04/17 00:29:37;;;;;;;3.25;1.48;;;11.20;49.90;;;;;;5132522;27;20073;-60
2022/04/17 00:32:03;;;;;;;2.42;1.38;;;11.20;50.00;;;;;;5110709;27;20027;-60
2022/04/17 00:34:30;;;;;;;2.67;1.25;;;11.20;50.10;;;;;;5131050;27;20031;-60
2022/04/17 00:36:59;;;;;;;1.20;1.10;;;11.10;50.10;;;;;;5131743;27;20029;-60
2022/04/17 00:39:26;;;;;;;1.67;1.30;;;11.10;50.40;;;;;;5143203;27;20370;-61
2022/04/17 00:41:53;;;;;;;1.30;1.20;;;11.00;50.40;;;;;;5133954;27;20058;-61
2022/04/17 00:44:19;;;;;;;1.35;1.17;;;11.00;50.80;;;;;;5135752;27;20031;-61
2022/04/17 00:46:45;;;;;;;1.65;1.48;;;10.90;50.90;;;;;;5110425;27;20072;-61
2022/04/17 00:49:11;;;;;;;2.22;1.27;;;10.90;51.70;;;;;;5145159;27;20441;-61
2022/04/17 00:51:37;;;;;;;1.63;1.52;;;10.80;51.20;;;;;;5137644;27;20031;-61
2022/04/17 00:54:04;;;;;;;2.80;1.40;;;10.80;51.30;;;;;;5130159;27;20039;-61
2022/04/17 00:56:34;;;;;;;4.68;1.60;;;10.80;51.40;;;;;;5110370;27;20474;-61
2022/04/17 00:59:03;;;;;;;2.65;1.48;;;10.70;51.50;;;;;;5126172;27;20129;-60
2022/04/17 01:01:33;;;;;;;2.90;1.30;;;10.70;51.70;;;;;;5137293;27;20065;-60
2022/04/17 01:03:59;;;;;;;3.90;1.15;;;10.60;51.80;;;;;;5128151;27;20039;-60
2022/04/17 01:06:30;;;;;;;3.63;1.50;;;10.60;51.80;;;;;;5126827;27;20035;-59
2022/04/17 01:08:56;;;;;;;2.08;1.30;;;10.60;51.90;;;;;;5124096;27;20036;-60
2022/04/17 01:11:22;;;;;;;1.33;1.20;;;10.50;52.20;;;;;;5107850;27;20038;-60
2022/04/17 01:13:48;;;;;;;3.95;1.27;;;10.50;52.40;;;;;;5127930;27;20031;-60
2022/04/17 01:16:16;;;;;;;3.83;1.25;;;10.50;52.70;;;;;;5104805;27;20073;-59
2022/04/17 01:19:04;;;;;;;1.27;1.17;;;10.40;52.80;;;;;;5123717;27;20413;-59
2022/04/17 01:21:31;;;;;;;1.50;1.40;;;10.30;53.00;;;;;;5125268;27;20326;-61
2022/04/17 01:26:57;;;;;;;1.95;1.50;;;10.20;53.10;;;;;;5126099;27;20042;-60
2022/04/17 01:29:26;;;;;;;1.80;1.33;;;10.20;53.40;;;;;;5128402;27;20092;-60
2022/04/17 01:31:52;;;;;;;1.98;1.33;;;10.10;53.40;;;;;;5124566;27;20026;-60
2022/04/17 01:34:20;;;;;;;3.13;1.40;;;10.10;53.60;;;;;;5149871;27;20027;-61
2022/04/17 01:36:47;;;;;;;1.58;1.30;;;10.00;53.70;;;;;;5141059;27;20060;-60
2022/04/17 01:39:13;;;;;;;3.05;1.38;;;10.00;54.10;;;;;;5129281;27;20034;-60
2022/04/17 01:41:39;;;;;;;1.77;1.40;;;9.90;54.10;;;;;;5141412;27;20478;-60
2022/04/17 01:44:06;;;;;;;2.08;1.88;;;9.90;54.10;;;;;;5131799;27;20096;-60
2022/04/17 01:46:33;;;;;;;1.52;1.30;;;9.90;54.30;;;;;;5141467;27;20031;-60
2022/04/17 01:48:59;;;;;;;2.08;1.73;;;9.80;54.30;;;;;;5130787;27;20034;-60
2022/04/17 01:51:25;;;;;;;2.17;1.80;;;9.80;54.40;;;;;;5141975;27;20106;-60
2022/04/17 01:53:51;;;;;;;1.20;1.10;;;9.70;54.80;;;;;;5128424;27;20129;-60
2022/04/17 01:56:17;;;;;;;2.67;1.65;;;9.70;54.80;;;;;;5107434;27;20106;-60
2022/04/17 01:58:42;;;;;;;2.00;1.48;;;9.70;54.90;;;;;;5125339;27;20127;-60
2022/04/17 02:01:08;;;;;;;2.38;1.60;;;9.60;55.20;;;;;;5124727;27;20037;-60
2022/04/17 02:03:34;;;;;;;1.65;1.30;;;9.60;55.40;;;;;;5137182;27;20060;-60
2022/04/17 02:06:02;;;;;;;1.85;1.67;;;9.50;55.30;;;;;;5128504;27;20035;-62
2022/04/17 02:08:28;;;;;;;2.58;1.60;;;9.50;55.60;;;;;;5139137;27;20050;-60
2022/04/17 02:10:55;;;;;;;2.97;2.35;;;9.40;55.60;;;;;;5148320;27;20022;-60
2022/04/17 02:13:23;;;;;;;3.17;1.77;;;9.40;55.70;;;;;;5128651;27;20049;-59
2022/04/17 02:15:49;;;;;;;3.33;1.35;;;9.30;56.50;;;;;;5128109;27;20470;-59
2022/04/17 02:18:16;;;;;;;4.25;1.52;;;9.30;56.00;;;;;;5130398;27;20527;-60
2022/04/17 02:20:42;;;;;;;2.78;1.55;;;9.30;56.30;;;;;;5130818;27;20027;-60
2022/04/17 02:23:07;;;;;;;2.33;2.05;;;9.20;56.40;;;;;;5127587;27;20035;-59
2022/04/17 02:25:34;;;;;;;3.25;1.67;;;9.10;56.70;;;;;;5128764;27;20446;-59
2022/04/17 02:27:59;;;;;;;3.88;2.63;;;9.10;56.80;;;;;;5128324;27;20535;-59
2022/04/17 02:30:25;;;;;;;1.85;1.75;;;9.10;56.90;;;;;;5103726;27;20022;-60
2022/04/17 02:32:50;;;;;;;1.73;1.63;;;9.10;56.90;;;;;;5129795;27;20089;-60
2022/04/17 02:35:17;;;;;;;1.40;1.30;;;9.00;56.90;;;;;;5123395;27;20489;-59
2022/04/17 02:37:42;;;;;;;2.67;1.67;;;9.00;57.10;;;;;;5130445;27;20115;-60
2022/04/17 02:40:11;;;;;;;1.50;1.40;;;9.00;57.20;;;;;;5127442;27;20105;-60
2022/04/17 02:42:37;;;;;;;5.53;1.90;;;8.90;57.30;;;;;;5128272;27;20363;-60
2022/04/17 02:45:04;;;;;;;3.90;2.08;;;8.90;57.40;;;;;;5134922;27;20035;-60
2022/04/17 02:47:46;;;;;;;1.90;1.50;;;8.80;57.30;;;;;;5126859;27;20027;-60
2022/04/17 02:50:16;;;;;;;3.35;2.03;;;8.80;57.50;;;;;;5124789;27;20027;-60
2022/04/17 02:52:42;;;;;;;8.93;2.08;;;8.80;57.70;;;;;;5106675;27;20031;-60
2022/04/17 02:55:09;;;;;;;2.60;1.38;;;8.80;58.00;;;;;;5125978;27;20031;-60
2022/04/17 02:57:34;;;;;;;2.55;2.00;;;8.70;58.10;;;;;;5123285;27;20478;-60
2022/04/17 03:00:00;;;;;;;2.80;2.25;;;8.70;58.70;;;;;;5125754;27;20100;-60
2022/04/17 03:07:55;;;;;;;4.38;2.15;;;8.60;58.50;;;;;;5126277;27;20068;-60
2022/04/17 03:10:21;;;;;;;2.90;1.58;;;8.50;58.50;;;;;;5136115;27;20051;-61
2022/04/17 03:12:47;;;;;;;3.85;1.95;;;8.50;58.70;;;;;;5108110;27;20406;-61
2022/04/17 03:15:13;;;;;;;3.58;1.85;;;8.40;58.90;;;;;;5108851;27;20437;-61
2022/04/17 03:17:39;;;;;;;4.30;1.85;;;8.40;58.90;;;;;;5107929;27;20018;-61
2022/04/17 03:20:07;;;;;;;1.80;1.60;;;8.30;58.80;;;;;;5126281;27;20033;-61
2022/04/17 03:22:33;;;;;;;1.90;1.10;;;8.30;58.90;;;;;;5133452;27;20449;-61
2022/04/17 03:25:06;;;;;;;2.22;1.65;;;8.30;58.90;;;;;;5122839;27;20525;-61
2022/04/17 03:27:32;;;;;;;8.90;1.90;;;8.30;58.90;;;;;;5110034;27;20027;-61
2022/04/17 03:29:58;;;;;;;1.88;1.67;;;8.30;59.30;;;;;;5127747;27;20534;-60
2022/04/17 03:32:23;;;;;;;4.55;2.38;;;8.20;59.60;;;;;;5129374;27;20111;-61
2022/04/17 03:34:49;;;;;;;2.22;1.67;;;8.20;59.60;;;;;;5130316;27;20031;-61
2022/04/17 03:37:16;;;;;;;9.35;2.67;;;8.10;59.60;;;;;;5141498;27;20019;-61
2022/04/17 03:39:43;;;;;;;3.38;2.05;;;8.10;59.80;;;;;;5132680;27;20361;-61
2022/04/17 03:42:08;;;;;;;1.92;1.35;;;8.10;60.00;;;;;;5131057;27;20030;-61
2022/04/17 03:44:34;;;;;;;2.10;1.70;;;8.00;60.00;;;;;;5128812;27;20023;-61
2022/04/17 03:47:00;;;;;;;2.85;1.98;;;8.00;60.00;;;;;;5127695;27;20041;-60
2022/04/17 03:49:26;;;;;;;3.60;2.13;;;8.00;60.00;;;;;;5139763;27;20057;-61
2022/04/17 03:51:52;;;;;;;2.50;1.83;;;8.00;60.00;;;;;;5111645;27;20055;-61
2022/04/17 03:54:19;;;;;;;2.95;1.80;;;7.90;60.20;;;;;;5126496;27;20031;-61
2022/04/17 03:56:46;;;;;;;1.73;1.60;;;7.90;60.40;;;;;;5138401;27;20030;-61
2022/04/17 03:59:12;;;;;;;2.72;2.47;;;7.80;60.60;;;;;;5130411;27;20176;-60
2022/04/17 04:01:38;;;;;;;1.73;1.63;;;7.80;60.60;;;;;;5140533;27;20027;-60
2022/04/17 04:04:06;;;;;;;3.75;2.13;;;7.80;60.80;;;;;;5131424;27;20035;-60
2022/04/17 04:06:34;;;;;;;2.97;2.00;;;7.80;61.00;;;;;;5131569;27;20058;-60
2022/04/17 04:09:00;;;;;;;2.67;2.00;;;7.70;61.10;;;;;;5141898;27;20054;-60
2022/04/17 04:11:26;;;;;;;3.97;2.28;;;7.70;61.00;;;;;;5140625;27;20109;-60
2022/04/17 04:13:54;;;;;;;2.97;2.00;;;7.70;61.10;;;;;;5141065;27;20454;-60
2022/04/17 04:16:46;;;;;;;1.80;1.70;;;7.70;61.20;;;;;;5131861;27;20031;-60
2022/04/17 04:19:13;;;;;;;1.73;1.63;;;7.70;61.20;;;;;;5127102;27;20144;-60
2022/04/17 04:21:47;;;;;;;2.95;2.47;;;7.60;61.20;;;;;;5130449;27;20023;-60
2022/04/17 04:24:14;;;;;;;3.08;2.20;;;7.60;61.40;;;;;;5133364;27;20037;-61
2022/04/17 04:26:44;;;;;;;1.90;1.80;;;7.60;61.40;;;;;;5151362;27;20115;-59
2022/04/17 04:29:10;;;;;;;2.92;2.28;;;7.60;62.20;;;;;;5131656;27;20033;-60
2022/04/17 04:31:36;;;;;;;3.03;2.00;;;7.50;61.60;;;;;;5129886;27;20479;-61
2022/04/17 04:34:02;;;;;;;1.92;1.70;;;7.50;61.70;;;;;;5109377;27;20393;-60
2022/04/17 04:36:28;;;;;;;2.15;1.88;;;7.50;61.80;;;;;;5130091;27;20026;-60
2022/04/17 04:38:54;;;;;;;2.75;1.80;;;7.50;61.90;;;;;;5132621;27;20035;-60
2022/04/17 04:41:20;;;;;;;2.45;2.00;;;7.40;61.90;;;;;;5128809;27;20061;-62
2022/04/17 04:43:45;;;;;;;2.17;1.92;;;7.40;62.00;;;;;;5128138;27;20035;-60
2022/04/17 04:46:11;;;;;;;1.85;1.63;;;7.40;62.10;;;;;;5130765;27;20393;-60
2022/04/17 04:51:26;;;;;;;3.58;1.95;;;7.30;62.20;;;;;;5126736;27;20077;-60
2022/04/17 04:53:52;;;;;;;3.58;2.15;;;7.30;62.40;;;;;;5128985;27;20019;-60
2022/04/17 04:56:19;;;;;;;2.55;1.88;;;7.30;62.50;;;;;;5132069;27;20462;-60
2022/04/17 04:58:45;;;;;;;3.42;2.10;;;7.30;62.60;;;;;;5129602;27;20466;-60
2022/04/17 05:01:11;;;;;;;2.85;1.73;;;7.30;62.70;;;;;;5124925;27;20027;-60
2022/04/17 05:03:37;;;;;;;4.10;1.80;;;7.20;62.60;;;;;;5137332;27;20042;-61
2022/04/17 05:06:03;;;;;;;2.78;2.35;;;7.20;62.70;;;;;;5130037;27;20501;-60
2022/04/17 05:08:29;;;;;;;2.50;1.95;;;7.20;62.80;;;;;;5131652;27;20057;-60
2022/04/17 05:10:55;;;;;;;2.25;2.08;;;7.20;63.00;;;;;;5124135;27;20019;-60
2022/04/17 05:13:21;;;;;;;3.47;2.10;;;7.20;63.00;;;;;;5136915;27;20039;-61
2022/04/17 05:15:47;;;;;;;3.17;2.45;;;7.20;63.10;;;;;;5134175;27;20053;-61
2022/04/17 05:18:13;;;;;;;3.58;2.35;;;7.20;63.30;;;;;;5143234;27;20027;-60
2022/04/17 05:20:39;;;;;;;3.63;2.10;;;7.30;63.30;;;;;;5129525;27;20038;-60
2022/04/17 05:23:19;;;;;;;3.22;2.00;;;7.30;63.30;;;;;;5109501;27;20442;-60
2022/04/17 05:25:51;;;;;;;2.47;1.70;;;7.30;63.30;;;;;;5130288;27;20015;-61
2022/04/17 05:28:17;;;;;;;4.20;2.28;;;7.30;63.30;;;;;;5129270;27;20015;-60
2022/04/17 05:30:44;;;;;;;2.42;2.22;;;7.30;63.20;;;;;;5128950;27;20034;-60
2022/04/17 05:33:10;;;;;;;2.58;2.15;;;7.40;63.20;;;;;;5137901;27;20051;-60
2022/04/17 05:35:36;;;;;;;2.58;1.63;;;7.40;63.20;;;;;;5128294;27;20418;-60
2022/04/17 05:38:02;;;;;;;1.65;1.55;;;7.50;63.20;;;;;;5110546;27;20114;-61
2022/04/17 05:40:29;;;;;;;3.58;2.03;;;7.50;63.10;;;;;;5127700;27;20338;-60
2022/04/17 05:42:56;;;;;;;2.25;1.60;;;7.60;63.10;;;;;;5129024;27;20026;-60
2022/04/17 05:45:22;;;;;;;2.65;1.75;;;7.60;62.90;;;;;;5119854;27;20023;-60
2022/04/17 05:47:48;;;;;;;2.92;1.92;;;7.60;62.80;;;;;;5130765;27;20534;-61
2022/04/17 05:50:14;;;;;;;2.90;1.80;;;7.70;62.70;;;;;;5133924;27;20031;-60
2022/04/17 05:52:41;;;;;;;3.58;1.90;;;7.70;62.50;;;;;;5147271;27;20023;-60
2022/04/17 05:55:09;;;;;;;5.82;2.05;;;7.80;62.50;;;;;;5127675;27;20659;-61
2022/04/17 05:57:34;;;;;;;2.30;1.90;;;7.80;62.30;;;;;;5137405;27;20021;-61
2022/04/17 06:00:00;;;;;;;2.33;2.10;;;7.90;62.30;;;;;;5128091;27;20031;-59
2022/04/17 06:02:27;;;;;;;3.55;2.25;;;7.90;61.90;;;;;;5127389;27;20027;-60
2022/04/17 06:04:53;;;;;;;3.40;1.92;;;8.00;61.80;;;;;;5126848;27;20118;-60
2022/04/17 06:07:26;;;;;;;4.22;2.00;;;8.00;61.70;;;;;;5127284;27;20133;-60
2022/04/17 06:09:52;;;;;;;2.40;1.67;;;8.00;61.40;;;;;;5135389;27;20043;-60
2022/04/17 06:12:18;;;;;;;1.73;1.63;;;8.10;61.30;;;;;;5127273;27;20346;-60
2022/04/17 06:14:43;;;;;;;2.28;2.05;;;8.20;61.40;;;;;;5145785;27;20117;-60
2022/04/17 06:17:12;;;;;;;2.28;2.08;;;8.20;61.20;;;;;;5129262;27;20027;-60
2022/04/17 06:19:38;;;;;;;2.33;1.83;;;8.30;61.00;;;;;;5141359;27;20048;-60
2022/04/17 06:22:04;;;;;;;2.25;1.88;;;8.30;61.00;;;;;;5122741;27;20035;-60
2022/04/17 06:24:30;;;;;;;2.65;2.10;;;8.30;60.90;;;;;;5133098;27;20107;-60
2022/04/17 06:26:56;;;;;;;3.08;2.25;;;8.40;60.80;;;;;;5110296;27;20252;-60
2022/04/17 06:29:22;;;;;;;2.30;2.10;;;8.40;60.50;;;;;;5128000;27;20039;-60
2022/04/17 06:31:47;;;;;;;3.45;2.63;;;8.40;60.30;;;;;;5124877;27;20028;-60
2022/04/17 06:34:15;;;;;;;2.78;2.08;;;8.50;60.50;;;;;;5116431;27;20027;-60
2022/04/17 06:36:41;;;;;;;2.45;1.60;;;8.50;60.40;;;;;;5126706;27;20466;-60
2022/04/17 06:39:07;;;;;;;2.80;1.80;;;8.60;60.30;;;;;;5125093;27;20027;-60
2022/04/17 06:41:32;;;;;;;1.85;1.73;;;8.60;60.20;;;;;;5123905;27;20046;-60
2022/04/17 06:43:58;;;;;;;3.05;2.50;;;8.70;60.00;;;;;;5122272;27;20436;-60
2022/04/17 06:46:24;;;;;;;2.15;1.95;;;8.70;59.90;;;;;;5127582;27;20039;-60
2022/04/17 06:48:49;;;;;;;3.60;2.40;;;8.80;59.70;;;;;;5128170;27;20497;-60
2022/04/17 06:51:16;;;;;;;3.55;2.22;;;8.80;59.70;;;;;;5126549;27;20076;-60
2022/04/17 06:53:42;;;;;;;1.42;1.20;;;8.90;59.60;;;;;;5125480;27;20031;-61
2022/04/17 06:56:12;;;;;;;2.63;2.13;;;8.90;59.40;;;;;;5127245;27;20080;-61
2022/04/17 06:58:38;;;;;;;4.60;2.25;;;9.00;59.30;;;;;;5123816;27;20512;-61
2022/04/17 07:01:04;;;;;;;2.33;1.73;;;9.00;58.60;;;;;;5126440;27;20023;-61
2022/04/17 07:03:30;;;;;;;2.65;1.52;;;9.10;58.70;;;;;;5126825;27;20031;-60
2022/04/17 07:05:55;;;;;;;2.10;1.90;;;9.10;58.60;;;;;;5124972;27;20037;-60
2022/04/17 07:08:21;;;;;;;2.83;1.88;;;9.10;58.30;;;;;;5130419;27;20058;-60
2022/04/17 07:10:47;;;;;;;6.25;2.70;;;9.20;58.30;;;;;;5102176;27;20067;-60
2022/04/17 07:13:16;;;;;;;4.05;2.80;;;9.20;58.00;;;;;;5122474;27;20402;-60
2022/04/17 07:15:45;;;;;;;4.35;2.22;;;9.30;58.00;;;;;;5096121;27;20035;-60
2022/04/17 07:18:10;;;;;;;4.03;2.17;;;9.30;57.90;;;;;;5136651;27;20467;-60
2022/04/17 07:20:36;;;;;;;3.40;2.58;;;9.40;57.90;;;;;;5131591;27;20044;-60
2022/04/17 07:23:02;;;;;;;1.95;1.75;;;9.40;57.50;;;;;;5137560;27;20032;-60
2022/04/17 07:25:33;;;;;;;2.25;1.80;;;9.40;57.60;;;;;;5108633;27;20023;-60
2022/04/17 07:27:59;;;;;;;3.22;1.85;;;9.50;57.70;;;;;;5116352;27;20418;-60
2022/04/17 07:30:28;;;;;;;2.55;1.88;;;9.50;57.70;;;;;;5126192;27;20108;-61
2022/04/17 07:32:58;;;;;;;1.83;1.73;;;9.60;57.70;;;;;;5127454;27;20015;-60
2022/04/17 07:35:25;;;;;;;3.13;2.30;;;9.60;57.60;;;;;;5131762;27;20071;-61
2022/04/17 07:37:53;;;;;;;2.15;1.65;;;9.70;57.70;;;;;;5129054;27;20034;-60
2022/04/17 07:40:25;;;;;;;2.13;1.67;;;9.80;57.90;;;;;;5132023;27;20439;-60
2022/04/17 07:42:51;;;;;;;3.85;1.60;;;9.90;58.00;;;;;;5126223;27;20035;-59
2022/04/17 07:45:24;;;;;;;3.42;2.05;;;9.90;57.60;;;;;;5135038;27;20460;-59
2022/04/17 07:47:51;;;;;;;2.20;1.90;;;9.90;57.40;;;;;;5108172;27;20027;-60
2022/04/17 07:50:21;;;;;;;2.38;2.08;;;10.00;56.60;;;;;;5109755;27;20118;-60
2022/04/17 07:52:46;;;;;;;1.70;1.58;;;10.00;56.50;;;;;;5128539;27;20030;-60
2022/04/17 07:55:14;;;;;;;2.10;1.60;;;10.10;56.60;;;;;;5127352;27;20019;-60
2022/04/17 07:57:56;;;;;;;3.22;1.30;;;10.20;56.00;;;;;;5141579;27;20042;-60
2022/04/17 08:00:23;;;;;;;2.05;1.48;;;10.20;56.00;;;;;;5129615;27;20168;-60
2022/04/17 08:02:55;;;;;;;3.33;1.83;;;10.30;55.90;;;;;;5127092;27;20031;-60
2022/04/17 08:05:22;;;;;;;1.40;1.27;;;10.30;55.70;;;;;;5133661;27;20116;-60
2022/04/17 08:08:06;;;;;;;2.15;1.73;;;10.40;54.90;;;;;;5135417;27;20035;-60
2022/04/17 08:10:32;;;;;;;1.75;1.23;;;10.40;54.80;;;;;;5131285;27;20082;-60
2022/04/17 08:12:58;;;;;;;2.63;1.42;;;10.50;54.80;;;;;;5131706;27;20347;-60
2022/04/17 08:15:24;;;;;;;2.00;1.40;;;10.50;54.80;;;;;;5140197;27;20042;-60
2022/04/17 08:17:50;;;;;;;3.38;1.20;;;10.60;54.70;;;;;;5114255;27;20114;-60
2022/04/17 08:20:16;;;;;;;2.03;1.40;;;10.70;54.40;;;;;;5133849;27;20059;-60
2022/04/17 08:22:41;;;;;;;2.47;1.48;;;10.70;54.30;;;;;;5113906;27;20092;-60
2022/04/17 08:25:07;;;;;;;2.78;1.38;;;10.80;53.90;;;;;;5132191;27;20042;-60
2022/04/17 08:27:33;;;;;;;2.08;1.13;;;10.90;54.10;;;;;;5129346;27;20470;-61
2022/04/17 08:29:59;;;;;;;2.88;1.40;;;11.00;54.00;;;;;;5121129;27;20062;-60
2022/04/17 08:32:25;;;;;;;2.63;1.83;;;11.10;54.10;;;;;;5134357;27;20048;-60
2022/04/17 08:34:50;;;;;;;1.20;1.08;;;11.20;54.10;;;;;;5130835;27;20038;-60
2022/04/17 08:37:16;;;;;;;1.52;1.42;;;11.30;53.90;;;;;;5110268;27;20035;-60
2022/04/17 08:39:42;;;;;;;3.88;1.88;;;11.30;53.40;;;;;;5123909;27;20027;-61
2022/04/17 08:42:08;;;;;;;2.35;1.60;;;11.40;52.70;;;;;;5113887;27;20042;-59
2022/04/17 08:44:34;;;;;;;3.88;1.92;;;11.40;53.10;;;;;;5134186;27;20115;-60
2022/04/17 08:47:00;;;;;;;1.77;1.20;;;11.40;52.90;;;;;;5131428;27;20042;-60
2022/04/17 08:49:27;;;;;;;2.55;1.63;;;11.50;52.90;;;;;;5111464;27;20026;-60
2022/04/17 08:51:55;;;;;;;1.65;1.23;;;11.60;53.10;;;;;;5119299;27;20038;-60
2022/04/17 08:54:26;;;;;;;1.80;1.42;;;11.70;53.30;;;;;;5127092;27;20027;-60
2022/04/17 08:56:52;;;;;;;1.42;1.25;;;11.70;53.50;;;;;;5127710;27;20027;-60
2022/04/17 08:59:18;;;;;;;2.47;2.13;;;11.80;53.50;;;;;;5094179;27;20046;-60
2022/04/17 09:01:44;;;;;;;1.73;1.38;;;11.90;53.20;;;;;;5132811;27;20035;-60
2022/04/17 09:04:10;;;;;;;3.33;1.60;;;12.00;53.30;;;;;;5129988;27;20042;-61
2022/04/17 09:06:37;;;;;;;2.85;1.42;;;12.10;52.90;;;;;;5128255;27;20029;-59
2022/04/17 09:09:05;;;;;;;1.50;1.40;;;12.20;52.70;;;;;;5116494;27;20729;-60
2022/04/17 09:11:32;;;;;;;1.80;1.30;;;12.20;53.00;;;;;;5130166;27;20056;-60
2022/04/17 09:14:03;;;;;;;1.33;1.13;;;12.30;53.00;;;;;;5122390;27;20107;-60
2022/04/17 09:16:33;;;;;;;1.13;1.02;;;12.40;52.70;;;;;;5127832;27;20123;-60
2022/04/17 09:19:10;;;;;;;2.28;1.42;;;12.50;52.70;;;;;;5124735;27;20035;-59
2022/04/17 09:21:36;;;;;;;1.65;1.55;;;12.60;52.50;;;;;;5130383;27;20127;-60
2022/04/17 09:24:26;;;;;;;2.50;1.70;;;12.80;52.70;;;;;;5129866;27;20507;-60
2022/04/17 09:26:57;;;;;;;2.75;1.65;;;13.00;52.60;;;;;;5111926;27;20474;-60
2022/04/17 09:29:25;;;;;;;1.83;1.40;;;13.00;51.50;;;;;;5123997;27;20083;-60
2022/04/17 09:32:01;;;;;;;1.23;1.10;;;13.00;51.60;;;;;;5107326;27;20030;-60
2022/04/17 09:34:29;;;;;;;2.25;1.38;;;13.10;51.80;;;;;;5124895;27;20090;-60
2022/04/17 09:36:57;;;;;;;2.53;1.60;;;13.20;51.90;;;;;;5119909;27;20028;-60
2022/04/17 09:39:22;;;;;;;2.30;1.05;;;13.30;51.20;;;;;;5125875;27;20070;-60
2022/04/17 09:41:56;;;;;;;2.60;1.15;;;13.30;50.50;;;;;;5123522;27;20027;-60
2022/04/17 09:44:39;;;;;;;1.80;1.40;;;13.30;49.30;;;;;;5126707;27;20114;-61
2022/04/17 09:47:06;;;;;;;;;;;13.40;49.10;;;;;;5125137;27;20071;-60
2022/04/17 09:49:59;;;;;;;1.50;1.00;;;13.30;48.40;;;;;;5107651;27;19923;-60
2022/04/17 09:52:29;;;;;;;1.23;1.00;;;13.40;48.80;;;;;;5109690;27;20035;-60
2022/04/17 09:54:54;;;;;;;1.17;0.93;;;13.50;49.20;;;;;;5124313;27;20084;-61
2022/04/17 09:57:33;;;;;;;1.67;1.00;;;13.60;49.10;;;;;;5123573;27;20035;-60
2022/04/17 10:00:25;;;;;;;0.82;0.80;;;13.80;49.30;;;;;;5123835;27;20505;-61
2022/04/17 10:02:51;;;;;;;0.85;0.70;;;13.90;49.20;;;;;;5117915;27;20370;-60
2022/04/17 10:05:19;;;;;;;1.00;1.00;;;14.10;49.10;;;;;;5103829;27;20031;-60
2022/04/17 10:07:47;;;;;;;0.88;0.88;;;14.20;48.90;;;;;;5132069;27;20031;-60
2022/04/17 10:10:15;;;;;;;2.25;0.95;;;14.40;48.80;;;;;;5121940;27;20062;-60
2022/04/17 10:12:43;;;;;;;2.05;0.70;;;14.50;48.70;;;;;;5105215;27;20509;-60
2022/04/17 10:15:11;;;;;;;2.28;0.70;;;14.70;48.40;;;;;;5124265;27;20508;-61
2022/04/17 10:17:44;;;;;;;0.60;0.60;;;14.70;47.70;;;;;;5122361;27;20043;-60
2022/04/17 10:20:12;;;;;;;0.85;0.85;;;14.80;47.30;;;;;;5108747;27;20027;-60
2022/04/17 10:22:40;;;;;;;1.15;0.95;;;14.90;47.20;;;;;;5126849;27;20027;-60
2022/04/17 10:25:09;;;;;;;1.08;0.90;;;15.00;46.70;;;;;;5111103;27;20188;-60
2022/04/17 10:27:48;;;;;;;1.77;0.85;;;15.00;46.50;;;;;;5125364;27;20220;-60
2022/04/17 10:30:23;;;;;;;1.05;0.70;;;15.10;46.60;;;;;;5108989;27;20045;-58
2022/04/17 10:33:18;;;;;;;2.33;1.30;;;15.20;47.00;;;;;;5107309;27;20459;-57
2022/04/17 10:35:53;;;;;;;1.30;1.08;;;15.20;46.80;;;;;;5118461;27;20041;-63
2022/04/17 10:39:03;;;;;;;3.08;1.50;;;15.20;46.60;;;;;;5126793;27;20034;-63
2022/04/17 10:41:29;;;;;;;1.48;0.93;;;15.30;46.60;;;;;;5124221;27;20047;-63
2022/04/17 10:43:59;;;;;;;2.13;1.27;;;15.40;46.40;;;;;;5110456;27;20035;-67
2022/04/17 10:46:25;;;;;;;2.00;1.20;;;15.50;46.60;;;;;;5125800;27;20028;-66
2022/04/17 10:48:57;;;;;;;1.50;0.82;;;15.60;46.60;;;;;;5114622;27;20063;-66
2022/04/17 10:51:27;;;;;;;1.13;1.02;;;15.70;46.80;;;;;;5111715;27;20385;-66
2022/04/17 10:54:15;;;;;;;1.58;0.98;;;15.80;46.40;;;;;;5122141;27;20470;-66
2022/04/17 10:56:54;;;;;;;0.80;0.73;;;15.90;46.20;;;;;;5123237;27;20489;-66
2022/04/17 10:59:21;;;;;;;1.20;0.98;;;16.00;46.20;;;;;;5120521;27;20554;-66
2022/04/17 11:02:08;;;;;;;1.92;1.00;;;16.10;46.10;;;;;;5130351;27;20027;-66
2022/04/17 11:04:54;;;;;;;1.10;1.00;;;16.30;45.70;;;;;;5101919;27;20035;-66
2022/04/17 11:07:29;;;;;;;0.85;0.77;;;16.30;45.30;;;;;;5105295;27;20023;-66
2022/04/17 11:10:20;;;;;;;1.25;0.60;;;16.40;45.00;;;;;;5130624;27;20075;-66
2022/04/17 11:12:52;;;;;;;2.05;1.20;;;16.40;44.30;;;;;;5131941;27;20091;-66
2022/04/17 11:15:17;;;;;;;0.80;0.80;;;16.50;43.70;;;;;;5131804;27;20023;-66
2022/04/17 11:17:46;;;;;;;0.95;0.90;;;16.50;43.90;;;;;;5131948;27;20019;-66
2022/04/17 11:20:13;;;;;;;1.88;0.95;;;16.70;43.90;;;;;;5126435;27;20039;-66
2022/04/17 11:22:39;;;;;;;1.23;0.88;;;16.90;43.70;;;;;;5132390;27;20039;-66
2022/04/17 11:25:06;;;;;;;1.35;0.93;;;17.00;42.80;;;;;;5132386;27;20050;-65
2022/04/17 11:27:31;;;;;;;1.70;0.70;;;17.10;41.90;;;;;;5132515;27;20305;-65
2022/04/17 11:29:58;;;;;;;1.17;1.05;;;17.10;42.00;;;;;;5110780;27;20457;-58
2022/04/17 11:32:27;;;;;;;0.93;0.75;;;17.20;41.50;;;;;;5107195;27;20470;-59
2022/04/17 11:34:55;;;;;;;1.67;0.77;;;17.30;41.90;;;;;;5117870;27;20073;-58
2022/04/17 11:37:25;;;;;;;1.55;0.90;;;17.40;42.10;;;;;;5112100;27;20375;-58
2022/04/17 11:39:52;;;;;;;0.95;0.85;;;17.60;42.00;;;;;;5122636;27;20057;-65
2022/04/17 11:42:18;;;;;;;1.13;0.88;;;17.70;41.60;;;;;;5128889;27;20046;-65
2022/04/17 11:44:45;;;;;;;0.88;0.88;;;17.80;41.30;;;;;;5131269;27;20023;-66
2022/04/17 11:47:18;;;;;;;2.67;0.90;;;17.90;40.90;;;;;;5128593;27;20027;-66
2022/04/17 11:49:45;;;;;;;1.05;0.70;;;17.90;41.30;;;;;;5129959;27;20027;-66
2022/04/17 11:52:16;;;;;;;1.25;1.08;;;18.10;41.70;;;;;;5109181;27;20039;-59
2022/04/17 11:54:43;;;;;;;2.47;1.17;;;18.20;40.90;;;;;;5115914;27;20064;-59
2022/04/17 11:57:10;;;;;;;0.85;0.85;;;18.30;41.10;;;;;;5125935;27;20028;-58
2022/04/17 11:59:57;;;;;;;1.48;0.88;;;18.40;41.40;;;;;;5119676;27;20031;-59
2022/04/17 12:02:27;;;;;;;1.10;0.90;;;18.50;40.90;;;;;;5131689;27;20039;-59
2022/04/17 12:04:55;;;;;;;1.30;1.20;;;18.60;40.90;;;;;;5114006;27;20070;-60
2022/04/17 12:07:25;;;;;;;1.20;1.10;;;18.70;40.30;;;;;;5132128;27;20504;-59
2022/04/17 12:10:08;;;;;;;1.00;0.90;;;18.70;40.20;;;;;;5107188;28;20050;-58
2022/04/17 12:12:39;;;;;;;2.42;1.10;;;18.70;40.30;;;;;;5091383;28;20028;-62
2022/04/17 12:15:05;;;;;;;1.67;1.20;;;18.70;40.00;;;;;;5082718;28;20024;-67
2022/04/17 12:17:34;;;;;;;2.10;1.13;;;18.70;40.00;;;;;;5107473;28;20036;-67
2022/04/17 12:20:13;;;;;;;3.13;1.00;;;18.80;40.10;;;;;;5086191;28;20031;-62
2022/04/17 12:22:41;;;;;;;2.47;1.02;;;18.90;40.10;;;;;;5090520;28;20039;-61
2022/04/17 12:25:18;;;;;;;1.13;1.02;;;19.00;39.40;;;;;;5089721;28;20546;-61
2022/04/17 12:27:48;;;;;;;1.52;1.13;;;19.00;38.90;;;;;;5088395;28;20032;-62
2022/04/17 12:30:21;;;;;;;1.40;0.88;;;19.10;38.60;;;;;;5080996;28;20031;-63
2022/04/17 12:32:48;;;;;;;1.35;1.20;;;19.20;38.50;;;;;;5110576;28;20442;-63
2022/04/17 12:35:25;;;;;;;1.20;1.10;;;19.30;38.60;;;;;;5109679;28;20513;-62
2022/04/17 12:38:01;;;;;;;1.48;1.13;;;19.40;38.50;;;;;;5093011;28;20020;-64
2022/04/17 12:40:27;;;;;;;1.55;1.33;;;19.40;38.50;;;;;;5096624;28;20036;-61
2022/04/17 12:42:53;;;;;;;1.17;1.08;;;19.60;38.00;;;;;;5081820;28;20037;-61
2022/04/17 12:45:26;;;;;;;1.45;1.05;;;19.60;37.70;;;;;;5108622;27;20499;-62
2022/04/17 12:48:04;;;;;;;1.33;1.10;;;19.70;37.70;;;;;;5090357;28;20050;-62
2022/04/17 12:50:30;;;;;;;1.02;0.98;;;19.70;37.40;;;;;;5099765;28;20063;-62
2022/04/17 12:52:57;;;;;;;1.20;1.10;;;19.80;37.70;;;;;;5081863;28;20105;-62
2022/04/17 12:55:30;;;;;;;2.63;1.50;;;20.00;37.20;;;;;;5107273;27;20032;-62
2022/04/17 12:57:56;;;;;;;2.85;1.15;;;20.10;37.40;;;;;;5077555;28;20040;-62
2022/04/17 13:00:27;;;;;;;2.08;1.42;;;20.30;37.10;;;;;;5085668;28;20032;-61
2022/04/17 13:03:14;;;;;;;1.63;1.20;;;20.40;36.30;;;;;;5079569;28;20075;-67
2022/04/17 13:05:40;;;;;;;1.23;1.13;;;20.40;35.90;;;;;;5087761;28;20455;-67
2022/04/17 13:08:08;;;;;;;1.15;1.05;;;20.50;36.20;;;;;;5088945;28;20390;-67
2022/04/17 13:10:34;;;;;;;1.20;1.10;;;20.70;35.70;;;;;;5101711;28;20097;-67